Time;durP1;ratioP1;P1;durP2;ratioP2;P2;SDS_P1;SDS_P2;PMS_P1;PMS_P2;Temp;Humidity;BMP_temperature;BMP_pressure;BME280_temperature;BME280_humidity;BME280_pressure;Samples;Min_cycle;Max_cycle;Signal;HPM_P1;HPM_P2
2021/01/15 04:08:52;;;;;;;9.80;7.35;;;0.30;99.90;;;;;;5489938;23;20520;-72
2021/01/15 04:11:18;;;;;;;8.93;7.35;;;0.20;99.90;;;;;;5000877;28;20648;-74
2021/01/15 04:13:44;;;;;;;10.35;7.97;;;0.30;99.90;;;;;;4992458;28;20193;-73
2021/01/15 04:16:16;;;;;;;10.40;7.22;;;0.30;99.90;;;;;;4992202;28;20173;-73
2021/01/15 04:18:43;;;;;;;9.50;8.10;;;0.30;99.90;;;;;;4992358;28;20186;-73
2021/01/15 04:21:13;;;;;;;8.88;7.63;;;1.10;99.90;;;;;;4974759;28;20518;-75
2021/01/15 04:23:39;;;;;;;9.27;7.85;;;0.30;99.90;;;;;;4974350;28;20225;-73
2021/01/15 04:26:05;;;;;;;12.15;8.30;;;0.30;99.90;;;;;;4992324;28;20244;-74
2021/01/15 04:28:30;;;;;;;8.57;7.78;;;0.20;99.90;;;;;;4992791;28;20213;-75
2021/01/15 04:30:56;;;;;;;11.15;8.25;;;0.20;99.90;;;;;;4992146;28;20177;-73
2021/01/15 04:33:22;;;;;;;9.80;7.82;;;0.30;99.90;;;;;;4974800;28;20202;-73
2021/01/15 04:35:47;;;;;;;10.57;8.27;;;0.30;99.90;;;;;;4992225;28;20208;-74
2021/01/15 04:38:13;;;;;;;9.60;8.05;;;0.30;99.90;;;;;;4991865;28;20197;-75
2021/01/15 04:40:39;;;;;;;10.88;7.65;;;0.50;99.90;;;;;;4992299;28;20174;-75
2021/01/15 04:43:06;;;;;;;9.75;8.63;;;0.30;99.90;;;;;;4991800;28;20193;-75
2021/01/15 04:45:32;;;;;;;11.15;8.93;;;0.30;99.90;;;;;;4992112;28;20173;-74
2021/01/15 04:47:58;;;;;;;10.27;8.43;;;0.30;99.90;;;;;;4991721;28;20630;-72
2021/01/15 04:50:24;;;;;;;11.02;8.90;;;0.20;99.90;;;;;;4992078;28;20233;-74
2021/01/15 04:52:53;;;;;;;10.75;8.20;;;0.20;99.90;;;;;;4991757;28;20193;-72
2021/01/15 04:55:24;;;;;;;10.77;9.07;;;0.30;99.90;;;;;;4991880;28;20205;-73
2021/01/15 04:57:54;;;;;;;9.52;8.52;;;0.30;99.90;;;;;;4991879;28;20181;-73
2021/01/15 05:00:25;;;;;;;9.95;8.25;;;0.30;99.90;;;;;;4974556;28;20177;-73
2021/01/15 05:02:52;;;;;;;11.60;8.77;;;0.30;99.90;;;;;;4974178;28;20174;-73
2021/01/15 05:05:27;;;;;;;9.30;8.23;;;0.30;99.90;;;;;;4991886;28;20174;-73
2021/01/15 05:08:05;;;;;;;9.80;8.75;;;0.30;99.90;;;;;;4991013;28;20699;-75
2021/01/15 05:10:35;;;;;;;9.45;8.10;;;0.40;99.90;;;;;;4993732;28;20739;-74
2021/01/15 05:13:06;;;;;;;11.52;9.00;;;0.40;99.90;;;;;;4995514;28;20457;-75
2021/01/15 05:15:32;;;;;;;9.65;8.43;;;0.50;99.90;;;;;;4995452;28;20241;-75
2021/01/15 05:17:58;;;;;;;11.10;8.30;;;0.40;99.90;;;;;;4995299;28;20285;-75
2021/01/15 05:20:29;;;;;;;11.82;8.93;;;0.40;99.90;;;;;;4995568;28;20640;-74
2021/01/15 05:22:57;;;;;;;8.80;7.90;;;0.20;99.90;;;;;;4995157;28;20240;-74
2021/01/15 05:25:22;;;;;;;12.23;8.68;;;0.30;99.90;;;;;;4977823;28;20185;-75
2021/01/15 05:27:48;;;;;;;9.07;8.05;;;0.40;99.90;;;;;;4995352;28;20667;-75
2021/01/15 05:30:20;;;;;;;11.55;9.05;;;0.30;99.90;;;;;;4995189;28;20174;-75
2021/01/15 05:32:46;;;;;;;9.27;8.30;;;0.30;99.90;;;;;;4977701;28;20178;-75
2021/01/15 05:35:13;;;;;;;10.70;8.77;;;0.40;99.90;;;;;;4995106;28;20177;-74
2021/01/15 05:37:39;;;;;;;10.07;8.15;;;0.30;99.90;;;;;;4977630;28;20198;-75
2021/01/15 05:40:06;;;;;;;11.13;8.60;;;0.30;99.90;;;;;;4977157;28;20185;-75
2021/01/15 05:42:49;;;;;;;8.77;7.82;;;0.30;99.90;;;;;;5001614;28;20265;-74
2021/01/15 05:45:16;;;;;;;9.07;8.18;;;0.30;99.90;;;;;;5004125;28;20640;-74
2021/01/15 05:47:44;;;;;;;10.68;8.75;;;0.40;99.90;;;;;;4985415;28;20208;-74
2021/01/15 05:50:11;;;;;;;9.40;7.90;;;0.40;99.90;;;;;;5004478;28;20591;-74
2021/01/15 05:52:52;;;;;;;11.05;9.07;;;0.40;99.90;;;;;;4987423;28;20177;-75
2021/01/15 05:55:19;;;;;;;8.90;8.00;;;0.40;99.90;;;;;;4987275;28;20170;-75
2021/01/15 05:57:48;;;;;;;11.52;8.30;;;2.00;99.90;;;;;;5003181;28;20198;-75
2021/01/15 06:00:29;;;;;;;11.52;8.88;;;0.30;99.90;;;;;;5003420;28;20170;-75
2021/01/15 06:02:56;;;;;;;9.95;7.93;;;0.40;99.90;;;;;;5004506;28;20204;-75
2021/01/15 06:05:23;;;;;;;12.88;7.57;;;0.40;99.90;;;;;;5014266;28;20482;-75
2021/01/15 06:07:59;;;;;;;8.88;7.90;;;0.40;99.90;;;;;;5002575;28;20231;-73
2021/01/15 06:10:25;;;;;;;9.25;7.80;;;0.40;99.90;;;;;;4986215;28;20268;-74
2021/01/15 06:12:52;;;;;;;10.52;8.32;;;0.40;99.90;;;;;;5002491;28;20560;-74
2021/01/15 06:15:17;;;;;;;11.35;8.48;;;0.50;99.90;;;;;;5005646;28;20189;-74
2021/01/15 06:17:49;;;;;;;10.75;8.25;;;0.50;99.90;;;;;;5013964;28;20236;-74
2021/01/15 06:20:20;;;;;;;9.40;7.78;;;0.40;99.90;;;;;;4979954;28;20296;-74
2021/01/15 06:22:51;;;;;;;10.75;8.10;;;0.50;99.90;;;;;;4994269;28;20173;-74
2021/01/15 06:25:29;;;;;;;10.10;8.13;;;0.50;99.90;;;;;;5003166;28;20545;-74
2021/01/15 06:27:56;;;;;;;10.98;8.45;;;0.50;99.90;;;;;;4996007;28;20630;-77
2021/01/15 06:30:28;;;;;;;9.80;8.40;;;0.50;99.90;;;;;;4994177;28;20435;-75
2021/01/15 06:33:05;;;;;;;10.93;8.02;;;0.50;99.90;;;;;;4986051;28;20198;-75
2021/01/15 06:35:36;;;;;;;10.10;8.98;;;0.50;99.90;;;;;;4995402;28;20256;-75
2021/01/15 06:38:03;;;;;;;10.73;8.05;;;0.50;99.90;;;;;;5012982;28;20193;-75
2021/01/15 06:40:32;;;;;;;10.93;8.82;;;0.50;99.90;;;;;;5013391;28;20165;-75
2021/01/15 06:42:59;;;;;;;10.65;8.18;;;0.50;99.90;;;;;;5013297;28;20243;-75
2021/01/15 06:45:25;;;;;;;10.98;8.20;;;0.60;99.90;;;;;;4995781;28;20284;-74
2021/01/15 06:47:54;;;;;;;10.27;8.23;;;0.60;99.90;;;;;;5006241;28;20208;-75
2021/01/15 06:50:20;;;;;;;10.70;8.55;;;0.60;99.90;;;;;;4991867;28;20232;-75
2021/01/15 06:52:50;;;;;;;9.63;8.38;;;1.70;99.90;;;;;;5007562;28;20177;-75
2021/01/15 06:55:18;;;;;;;10.70;7.93;;;0.60;99.90;;;;;;5012216;28;20188;-75
2021/01/15 06:57:49;;;;;;;9.48;7.88;;;0.50;99.90;;;;;;5012971;28;20188;-75
2021/01/15 07:00:21;;;;;;;10.00;8.38;;;0.50;99.90;;;;;;5013060;28;20244;-75
2021/01/15 07:03:22;;;;;;;10.10;8.45;;;0.60;99.90;;;;;;5012590;28;20173;-75
2021/01/15 07:05:48;;;;;;;10.57;8.55;;;0.60;99.90;;;;;;5013050;28;20172;-76
2021/01/15 07:08:14;;;;;;;10.82;9.00;;;0.90;99.90;;;;;;4994502;28;20264;-75
2021/01/15 07:10:41;;;;;;;10.85;9.00;;;0.60;99.90;;;;;;4995331;28;20212;-75
2021/01/15 07:13:10;;;;;;;9.88;8.88;;;0.60;99.90;;;;;;5012674;28;20185;-75
2021/01/15 07:15:42;;;;;;;9.52;8.55;;;0.60;99.90;;;;;;5012799;28;20168;-75
2021/01/15 07:18:47;;;;;;;14.77;9.63;;;0.60;99.90;;;;;;4994848;28;20189;-75
2021/01/15 07:21:21;;;;;;;9.23;8.27;;;0.60;99.90;;;;;;4955119;28;20266;-75
2021/01/15 07:23:52;;;;;;;13.85;9.52;;;0.50;99.90;;;;;;4969707;28;20234;-75
2021/01/15 07:26:18;;;;;;;10.27;8.95;;;0.50;99.90;;;;;;4971363;28;20177;-75
2021/01/15 07:28:46;;;;;;;13.60;9.65;;;0.50;99.90;;;;;;4971022;28;20301;-75
2021/01/15 07:31:22;;;;;;;13.88;9.15;;;0.60;99.90;;;;;;4971233;28;20186;-75
2021/01/15 07:33:55;;;;;;;11.30;9.20;;;0.60;99.90;;;;;;4970355;28;20229;-75
2021/01/15 07:36:35;;;;;;;12.00;9.05;;;0.50;99.90;;;;;;4971063;28;20199;-75
2021/01/15 07:39:14;;;;;;;11.25;9.82;;;0.60;99.90;;;;;;4954231;28;20198;-75
2021/01/15 07:41:44;;;;;;;12.80;9.07;;;0.60;99.90;;;;;;4955064;28;20210;-75
2021/01/15 07:44:21;;;;;;;13.50;8.55;;;0.60;99.90;;;;;;4971048;28;20202;-75
2021/01/15 07:46:51;;;;;;;12.18;9.13;;;0.60;99.90;;;;;;4970575;28;20181;-75
2021/01/15 07:49:17;;;;;;;13.13;9.75;;;0.60;99.90;;;;;;4970617;28;20229;-75
2021/01/15 07:51:42;;;;;;;12.82;9.52;;;0.60;99.90;;;;;;4970919;28;20183;-75
2021/01/15 07:54:08;;;;;;;10.80;8.95;;;1.30;99.90;;;;;;4970786;28;20221;-75
2021/01/15 07:56:34;;;;;;;16.67;10.75;;;0.60;99.90;;;;;;4980700;28;20277;-75
2021/01/15 07:59:00;;;;;;;12.57;10.25;;;0.50;99.90;;;;;;4992751;28;20712;-75
2021/01/15 08:01:26;;;;;;;13.40;9.55;;;0.60;99.90;;;;;;4992450;28;20632;-75
2021/01/15 08:03:57;;;;;;;11.00;8.85;;;0.60;99.90;;;;;;4975373;28;20212;-75
2021/01/15 08:06:24;;;;;;;13.57;8.65;;;0.60;99.90;;;;;;4974731;28;20640;-75
2021/01/15 08:09:00;;;;;;;8.70;7.80;;;0.60;99.90;;;;;;4995175;28;20232;-74
2021/01/15 08:11:27;;;;;;;10.15;8.98;;;0.60;99.90;;;;;;4991301;28;20181;-75
2021/01/15 08:14:20;;;;;;;12.50;9.05;;;0.60;99.90;;;;;;4990911;28;20182;-75
2021/01/15 08:16:47;;;;;;;12.23;9.32;;;0.70;99.90;;;;;;4992411;28;20205;-75
2021/01/15 08:19:16;;;;;;;11.10;9.02;;;0.60;99.90;;;;;;4975023;28;20201;-75
2021/01/15 08:21:43;;;;;;;11.38;8.88;;;0.60;99.90;;;;;;4992360;28;20188;-75
2021/01/15 08:24:09;;;;;;;15.57;9.82;;;0.60;99.90;;;;;;4992152;28;20213;-75
2021/01/15 08:26:50;;;;;;;11.73;8.95;;;0.60;99.90;;;;;;4992347;28;20185;-75
2021/01/15 08:29:17;;;;;;;14.27;9.95;;;0.70;99.90;;;;;;4974835;28;20312;-75
2021/01/15 08:31:44;;;;;;;14.23;9.82;;;0.70;99.90;;;;;;4992187;28;20644;-75
2021/01/15 08:34:11;;;;;;;10.85;9.50;;;0.50;99.90;;;;;;4992266;28;20196;-75
2021/01/15 08:36:42;;;;;;;13.32;8.80;;;0.70;99.90;;;;;;4992183;28;20656;-75
2021/01/15 08:39:08;;;;;;;11.77;9.15;;;0.70;99.90;;;;;;4974485;28;20215;-75
2021/01/15 08:41:35;;;;;;;12.25;9.85;;;0.70;99.90;;;;;;4992204;28;20201;-75
2021/01/15 08:44:01;;;;;;;12.18;9.85;;;0.70;99.90;;;;;;4993811;28;20185;-75
2021/01/15 08:46:28;;;;;;;13.25;9.45;;;0.70;99.90;;;;;;4978699;28;20176;-75
2021/01/15 08:48:54;;;;;;;12.48;9.52;;;0.70;99.90;;;;;;4978610;28;20312;-75
2021/01/15 08:51:20;;;;;;;9.77;8.70;;;0.70;99.90;;;;;;4996112;28;20257;-75
2021/01/15 08:54:06;;;;;;;10.70;9.38;;;0.70;99.90;;;;;;4978153;28;20267;-75
2021/01/15 08:56:43;;;;;;;10.52;9.07;;;0.70;99.90;;;;;;4995929;28;20166;-76
2021/01/15 08:59:11;;;;;;;11.07;9.55;;;0.80;99.90;;;;;;4995869;28;20190;-75
2021/01/15 09:01:44;;;;;;;10.23;7.97;;;0.80;99.90;;;;;;4978106;28;20221;-76
2021/01/15 09:04:12;;;;;;;10.25;8.75;;;0.70;99.90;;;;;;4978204;28;20190;-75
2021/01/15 09:06:39;;;;;;;9.80;8.80;;;0.80;99.90;;;;;;4995736;28;20174;-76
2021/01/15 09:09:10;;;;;;;12.50;9.05;;;0.80;99.90;;;;;;4977522;28;20245;-75
2021/01/15 09:11:40;;;;;;;11.38;8.93;;;0.80;99.90;;;;;;4995672;28;20177;-75
2021/01/15 09:14:12;;;;;;;11.13;9.65;;;0.80;99.90;;;;;;4978010;28;20288;-75
2021/01/15 09:16:39;;;;;;;13.57;9.25;;;0.80;99.90;;;;;;4995535;28;20255;-76
2021/01/15 09:19:12;;;;;;;13.32;9.10;;;0.80;99.90;;;;;;4995862;28;20186;-76
2021/01/15 09:22:07;;;;;;;9.40;8.30;;;0.80;99.90;;;;;;4995450;28;20216;-76
2021/01/15 09:24:35;;;;;;;10.23;9.00;;;0.90;99.90;;;;;;4993237;28;20202;-75
2021/01/15 09:27:04;;;;;;;11.20;9.73;;;0.90;99.90;;;;;;4995455;28;20583;-75
2021/01/15 09:29:30;;;;;;;12.48;9.10;;;0.90;99.90;;;;;;4994977;28;20218;-75
2021/01/15 09:31:56;;;;;;;10.90;9.68;;;0.90;99.90;;;;;;4977411;28;20264;-75
2021/01/15 09:34:23;;;;;;;10.93;8.27;;;1.00;99.90;;;;;;4993812;28;20276;-76
2021/01/15 09:36:51;;;;;;;11.18;9.05;;;1.00;99.90;;;;;;4995268;28;20597;-74
2021/01/15 09:39:18;;;;;;;11.75;9.15;;;1.10;99.90;;;;;;4977026;28;20206;-75
2021/01/15 09:41:48;;;;;;;11.25;9.40;;;1.10;99.90;;;;;;4977703;28;20178;-75
2021/01/15 09:44:19;;;;;;;12.90;9.18;;;1.10;99.90;;;;;;4994840;28;20248;-75
2021/01/15 09:46:45;;;;;;;10.50;9.38;;;1.10;99.90;;;;;;4995030;28;20293;-75
2021/01/15 09:49:12;;;;;;;11.45;9.65;;;1.20;99.90;;;;;;4994826;28;20213;-76
2021/01/15 09:51:38;;;;;;;10.45;9.35;;;1.20;99.90;;;;;;4994974;28;20181;-76
2021/01/15 09:54:04;;;;;;;14.02;10.55;;;1.20;99.90;;;;;;4994530;28;20229;-75
2021/01/15 09:56:33;;;;;;;14.18;10.35;;;1.30;99.90;;;;;;4976658;28;20189;-75
2021/01/15 09:59:01;;;;;;;11.32;10.10;;;1.30;99.90;;;;;;4994865;28;20186;-75
2021/01/15 10:01:28;;;;;;;10.90;9.82;;;1.40;99.90;;;;;;4994508;28;20193;-75
2021/01/15 10:03:55;;;;;;;13.35;11.63;;;1.40;99.90;;;;;;4977181;28;20625;-75
2021/01/15 10:06:23;;;;;;;14.60;10.30;;;1.40;99.90;;;;;;4994515;28;20174;-75
2021/01/15 10:08:49;;;;;;;11.48;10.27;;;1.50;99.90;;;;;;4994196;28;20233;-75
2021/01/15 10:11:23;;;;;;;13.10;11.68;;;1.40;99.90;;;;;;4994394;28;20265;-76
2021/01/15 10:13:50;;;;;;;12.13;10.80;;;1.50;99.90;;;;;;4994523;28;20190;-75
2021/01/15 10:16:15;;;;;;;12.48;11.02;;;1.40;99.90;;;;;;4994345;28;20166;-75
2021/01/15 10:18:41;;;;;;;13.73;11.88;;;1.50;99.90;;;;;;4994435;28;20190;-75
2021/01/15 10:21:08;;;;;;;11.65;10.50;;;1.50;99.90;;;;;;4994331;28;20181;-75
2021/01/15 10:23:35;;;;;;;12.25;10.98;;;1.50;99.90;;;;;;4993965;28;20703;-75
2021/01/15 10:26:01;;;;;;;11.80;10.23;;;1.60;99.90;;;;;;4994212;28;20189;-75
2021/01/15 10:28:27;;;;;;;13.35;10.57;;;1.60;99.90;;;;;;4994332;28;20220;-75
2021/01/15 10:30:53;;;;;;;13.98;10.65;;;1.60;99.90;;;;;;4993112;28;20170;-75
2021/01/15 10:33:23;;;;;;;14.38;11.23;;;1.60;99.90;;;;;;4993943;28;20544;-76
2021/01/15 10:35:50;;;;;;;12.35;10.77;;;1.60;99.90;;;;;;4975600;28;20197;-75
2021/01/15 10:38:16;;;;;;;12.30;10.15;;;1.60;99.90;;;;;;4976218;28;20194;-75
2021/01/15 10:40:43;;;;;;;14.75;10.23;;;1.60;99.90;;;;;;4994126;28;20209;-74
2021/01/15 10:43:09;;;;;;;12.20;10.88;;;1.60;99.90;;;;;;4993921;28;20194;-75
2021/01/15 10:45:35;;;;;;;14.75;10.85;;;1.60;99.90;;;;;;4976505;28;20197;-75
2021/01/15 10:48:03;;;;;;;12.77;9.93;;;1.60;99.90;;;;;;4993924;28;20201;-75
2021/01/15 10:50:31;;;;;;;12.73;10.15;;;1.60;99.90;;;;;;4993970;28;20269;-75
2021/01/15 10:52:57;;;;;;;12.15;10.05;;;1.60;99.90;;;;;;4976012;28;20205;-75
2021/01/15 10:55:23;;;;;;;10.90;9.73;;;1.40;99.90;;;;;;4993826;28;20241;-75
2021/01/15 10:57:49;;;;;;;12.02;10.48;;;1.50;99.90;;;;;;4993793;28;20182;-75
2021/01/15 11:00:16;;;;;;;12.73;10.75;;;1.60;99.90;;;;;;4993782;28;20217;-74
2021/01/15 11:02:47;;;;;;;12.20;10.43;;;1.60;99.90;;;;;;4993482;28;20170;-75
2021/01/15 11:05:13;;;;;;;12.20;10.27;;;1.60;99.90;;;;;;4993730;28;20169;-74
2021/01/15 11:07:41;;;;;;;13.05;10.77;;;1.70;99.90;;;;;;4974974;28;20205;-75
2021/01/15 11:10:07;;;;;;;14.38;11.02;;;1.80;99.90;;;;;;4975657;28;20700;-75
2021/01/15 11:12:33;;;;;;;12.85;10.63;;;1.80;99.90;;;;;;4993346;28;20170;-75
2021/01/15 11:14:59;;;;;;;15.05;10.32;;;1.90;99.90;;;;;;4976013;28;20190;-75
2021/01/15 11:17:25;;;;;;;13.77;10.75;;;1.90;99.90;;;;;;4993492;28;20174;-75
2021/01/15 11:19:51;;;;;;;13.85;10.27;;;1.90;99.90;;;;;;4993351;28;20206;-75
2021/01/15 11:22:17;;;;;;;11.25;9.93;;;1.90;99.90;;;;;;4993329;28;20649;-75
2021/01/15 11:24:42;;;;;;;13.48;10.85;;;1.90;99.90;;;;;;4992748;28;20249;-75
2021/01/15 11:27:08;;;;;;;16.58;11.32;;;2.00;99.90;;;;;;4993334;28;20233;-75
2021/01/15 11:29:34;;;;;;;13.18;10.82;;;2.00;99.90;;;;;;4991714;28;20225;-76
2021/01/15 11:31:59;;;;;;;12.77;10.50;;;2.10;99.90;;;;;;4993170;28;20173;-76
2021/01/15 11:34:25;;;;;;;13.80;11.30;;;2.10;99.90;;;;;;4993133;28;20197;-75
2021/01/15 11:36:51;;;;;;;11.15;10.05;;;2.20;99.90;;;;;;4993058;28;20214;-75
2021/01/15 11:39:17;;;;;;;11.65;10.48;;;2.20;99.90;;;;;;4992476;28;20194;-78
2021/01/15 11:41:43;;;;;;;11.48;9.82;;;2.20;99.90;;;;;;4992826;28;20178;-77
2021/01/15 11:44:10;;;;;;;13.48;11.32;;;2.30;99.90;;;;;;4975113;28;20562;-77
2021/01/15 11:46:36;;;;;;;14.07;11.25;;;2.30;99.90;;;;;;4991671;28;20549;-77
2021/01/15 11:49:03;;;;;;;13.48;11.07;;;2.30;99.90;;;;;;4991337;28;20597;-78
2021/01/15 11:51:29;;;;;;;12.85;10.77;;;2.20;99.90;;;;;;4992826;28;20170;-77
2021/01/15 11:53:54;;;;;;;14.82;12.45;;;2.30;99.90;;;;;;4992385;28;20194;-77
2021/01/15 11:56:21;;;;;;;12.32;10.85;;;2.20;99.90;;;;;;4992599;28;20575;-77
2021/01/15 11:58:47;;;;;;;13.93;11.50;;;2.20;99.90;;;;;;4992591;28;20252;-76
2021/01/15 12:01:15;;;;;;;23.33;12.70;;;2.20;99.90;;;;;;4992844;28;20177;-76
2021/01/15 12:03:41;;;;;;;12.60;10.90;;;2.20;99.90;;;;;;4992467;28;20217;-76
2021/01/15 12:06:06;;;;;;;15.75;12.10;;;2.20;99.90;;;;;;4991284;28;20177;-76
2021/01/15 12:08:32;;;;;;;13.13;11.73;;;2.20;99.90;;;;;;4990634;28;20233;-76
2021/01/15 12:11:02;;;;;;;13.10;10.65;;;2.20;99.90;;;;;;4992432;28;20178;-75
2021/01/15 12:13:28;;;;;;;12.90;10.85;;;2.20;99.90;;;;;;4992394;28;20194;-75
2021/01/15 12:15:55;;;;;;;13.98;10.93;;;2.10;99.90;;;;;;4992528;28;20706;-76
2021/01/15 12:18:22;;;;;;;14.55;10.68;;;2.20;99.90;;;;;;4991968;28;20653;-76
2021/01/15 12:20:48;;;;;;;13.27;11.45;;;2.20;99.90;;;;;;4992358;28;20173;-76
2021/01/15 12:23:15;;;;;;;14.23;10.52;;;2.30;99.90;;;;;;4992031;28;20224;-75
2021/01/15 12:25:42;;;;;;;15.52;11.20;;;2.30;99.90;;;;;;4974784;28;20178;-75
2021/01/15 12:28:12;;;;;;;15.80;11.18;;;2.30;99.90;;;;;;4990858;28;20220;-74
2021/01/15 12:30:39;;;;;;;13.63;10.73;;;2.30;99.90;;;;;;4992248;28;20244;-75
2021/01/15 12:33:09;;;;;;;13.68;11.43;;;2.30;99.90;;;;;;4991864;28;20194;-76
2021/01/15 12:35:36;;;;;;;15.10;11.93;;;2.30;99.90;;;;;;4982515;28;20177;-74
2021/01/15 12:38:08;;;;;;;12.63;10.80;;;2.30;99.90;;;;;;4973546;28;20285;-73
2021/01/15 12:40:35;;;;;;;17.23;11.07;;;2.30;99.90;;;;;;5007228;28;20188;-73
2021/01/15 12:43:01;;;;;;;15.88;11.07;;;2.30;99.90;;;;;;5019325;28;20292;-73
2021/01/15 12:45:27;;;;;;;14.10;11.95;;;2.30;99.90;;;;;;5021563;28;20506;-74
2021/01/15 12:47:52;;;;;;;13.35;11.68;;;2.40;99.90;;;;;;5020976;28;20193;-74
2021/01/15 12:50:18;;;;;;;16.90;12.07;;;2.40;99.90;;;;;;5010966;28;20271;-75
2021/01/15 12:52:44;;;;;;;16.52;12.55;;;2.40;99.90;;;;;;5007133;28;20228;-75
2021/01/15 12:55:10;;;;;;;17.67;13.02;;;2.40;99.90;;;;;;5009371;28;20173;-75
2021/01/15 12:57:40;;;;;;;16.05;12.60;;;2.40;99.90;;;;;;5007555;28;20193;-74
2021/01/15 13:00:06;;;;;;;14.88;12.98;;;2.40;99.90;;;;;;5006622;28;20173;-74
2021/01/15 13:02:32;;;;;;;13.00;11.63;;;2.40;99.90;;;;;;4991751;28;20257;-73
2021/01/15 13:04:58;;;;;;;14.23;12.38;;;2.50;99.90;;;;;;5002129;28;20248;-74
2021/01/15 13:07:23;;;;;;;13.82;11.50;;;2.50;99.90;;;;;;4992729;28;20182;-73
2021/01/15 13:09:49;;;;;;;16.70;11.85;;;2.50;99.90;;;;;;4991344;28;20626;-72
2021/01/15 13:12:15;;;;;;;17.90;12.52;;;2.50;99.90;;;;;;4995795;28;20177;-73
2021/01/15 13:14:41;;;;;;;14.13;12.20;;;2.50;99.90;;;;;;4993705;28;20332;-74
2021/01/15 13:17:08;;;;;;;13.48;11.57;;;2.50;99.90;;;;;;4993333;28;20640;-73
2021/01/15 13:19:34;;;;;;;14.23;12.05;;;2.50;99.90;;;;;;4989896;28;20213;-75
2021/01/15 13:21:59;;;;;;;17.05;12.52;;;2.50;99.90;;;;;;4991629;28;20325;-73
2021/01/15 13:24:25;;;;;;;14.00;11.88;;;2.50;99.90;;;;;;4989709;28;20525;-73
2021/01/15 13:26:51;;;;;;;14.18;11.27;;;2.50;99.90;;;;;;4989790;28;20171;-73
2021/01/15 13:29:16;;;;;;;12.65;11.15;;;2.50;99.90;;;;;;4991213;28;20214;-73
2021/01/15 13:31:42;;;;;;;11.52;10.10;;;2.60;99.90;;;;;;4976493;28;20177;-73
2021/01/15 13:34:07;;;;;;;10.70;9.57;;;2.60;99.90;;;;;;4994951;28;20197;-73
2021/01/15 13:36:33;;;;;;;11.15;9.90;;;2.60;99.90;;;;;;4998136;28;20206;-73
2021/01/15 13:38:59;;;;;;;11.90;10.70;;;2.60;99.90;;;;;;5009228;28;20671;-74
2021/01/15 13:41:25;;;;;;;11.82;10.00;;;2.60;99.90;;;;;;4978727;28;20602;-75
2021/01/15 13:43:50;;;;;;;11.15;9.07;;;2.60;99.90;;;;;;4979965;28;20249;-74
2021/01/15 13:46:16;;;;;;;11.20;9.93;;;2.60;99.90;;;;;;4996924;28;20177;-75
2021/01/15 13:48:42;;;;;;;11.93;9.82;;;2.60;99.90;;;;;;5014517;28;20216;-75
2021/01/15 13:51:15;;;;;;;12.13;9.80;;;2.60;99.90;;;;;;5013496;28;20173;-75
2021/01/15 13:53:44;;;;;;;10.23;8.93;;;2.60;99.90;;;;;;5004429;28;20194;-73
2021/01/15 13:56:10;;;;;;;11.35;10.07;;;2.60;99.90;;;;;;4984864;28;20275;-73
2021/01/15 13:58:38;;;;;;;16.40;10.25;;;2.60;99.90;;;;;;4985692;28;20201;-73
2021/01/15 14:01:03;;;;;;;12.05;10.02;;;2.60;99.90;;;;;;5006625;28;20173;-72
2021/01/15 14:03:29;;;;;;;12.75;9.68;;;2.60;99.90;;;;;;5009138;28;20251;-73
2021/01/15 14:05:55;;;;;;;13.30;10.40;;;2.60;99.90;;;;;;5011879;28;20169;-73
2021/01/15 14:08:21;;;;;;;13.93;10.65;;;2.60;99.90;;;;;;5012709;28;20276;-73
2021/01/15 14:10:47;;;;;;;11.95;10.10;;;2.60;99.90;;;;;;5012722;28;20174;-73
2021/01/15 14:13:13;;;;;;;12.93;10.82;;;2.60;99.90;;;;;;5010346;28;20200;-72
2021/01/15 14:15:38;;;;;;;12.43;10.73;;;2.60;99.90;;;;;;4995852;28;20220;-73
2021/01/15 14:18:05;;;;;;;12.30;10.55;;;2.60;99.90;;;;;;5011283;28;20212;-73
2021/01/15 14:20:30;;;;;;;14.65;10.60;;;2.60;99.90;;;;;;4995830;28;20173;-73
2021/01/15 14:22:56;;;;;;;13.10;10.88;;;2.50;99.90;;;;;;5002544;28;20198;-73
2021/01/15 14:25:22;;;;;;;14.38;10.90;;;2.60;99.90;;;;;;5004495;28;20260;-73
2021/01/15 14:27:48;;;;;;;15.40;11.60;;;2.50;99.90;;;;;;4985513;28;20198;-73
2021/01/15 14:30:15;;;;;;;13.18;11.43;;;2.50;99.90;;;;;;5000296;28;20217;-73
2021/01/15 14:32:48;;;;;;;12.32;11.13;;;2.50;99.90;;;;;;4999286;28;20265;-73
2021/01/15 14:35:15;;;;;;;13.93;11.35;;;2.50;99.90;;;;;;5004881;28;20227;-73
2021/01/15 14:37:52;;;;;;;12.10;10.60;;;2.50;99.90;;;;;;5012466;28;20176;-73
2021/01/15 14:40:18;;;;;;;13.13;10.45;;;2.50;99.90;;;;;;5013201;28;20223;-74
2021/01/15 14:42:44;;;;;;;12.18;10.02;;;2.50;99.90;;;;;;4995179;28;20181;-74
2021/01/15 14:45:12;;;;;;;11.63;10.18;;;2.50;99.90;;;;;;5013210;28;20173;-74
2021/01/15 14:47:37;;;;;;;12.77;10.45;;;2.40;99.90;;;;;;5012834;28;20173;-73
2021/01/15 14:50:05;;;;;;;13.70;11.05;;;2.50;99.90;;;;;;4992239;28;20411;-74
2021/01/15 14:52:31;;;;;;;12.70;11.02;;;2.40;99.90;;;;;;5012385;28;20219;-74
2021/01/15 14:54:56;;;;;;;12.23;10.93;;;2.40;99.90;;;;;;5012755;28;20275;-73
2021/01/15 14:57:22;;;;;;;11.25;10.18;;;2.40;99.90;;;;;;5013217;28;20169;-72
2021/01/15 14:59:48;;;;;;;12.02;10.73;;;2.40;99.90;;;;;;4995478;28;20196;-72
2021/01/15 15:02:14;;;;;;;14.35;11.77;;;2.40;99.90;;;;;;5013168;28;20186;-72
2021/01/15 15:04:40;;;;;;;14.55;11.93;;;2.40;99.90;;;;;;5011644;28;20212;-73
2021/01/15 15:07:06;;;;;;;16.67;11.27;;;2.40;99.90;;;;;;4994955;28;20176;-72
2021/01/15 15:09:33;;;;;;;13.57;11.48;;;2.30;99.90;;;;;;5011333;28;20237;-75
2021/01/15 15:12:03;;;;;;;13.52;11.77;;;2.30;99.90;;;;;;4995312;28;20177;-74
2021/01/15 15:14:28;;;;;;;14.38;12.50;;;2.30;99.90;;;;;;5012945;28;20185;-75
2021/01/15 15:16:54;;;;;;;14.57;12.30;;;2.20;99.90;;;;;;5012150;28;20195;-72
2021/01/15 15:19:20;;;;;;;13.60;12.20;;;2.20;99.90;;;;;;4992981;28;20655;-75
2021/01/15 15:21:46;;;;;;;13.48;12.07;;;2.20;99.90;;;;;;4993451;28;20169;-74
2021/01/15 15:24:12;;;;;;;13.85;11.80;;;2.20;99.90;;;;;;4992785;28;20225;-74
2021/01/15 15:26:38;;;;;;;16.02;12.50;;;2.20;99.90;;;;;;4993414;28;20197;-74
2021/01/15 15:29:12;;;;;;;15.40;12.40;;;2.10;99.90;;;;;;4975615;28;20225;-74
2021/01/15 15:31:41;;;;;;;14.25;11.82;;;2.10;99.90;;;;;;4993234;28;20205;-74
2021/01/15 15:34:07;;;;;;;14.88;11.20;;;2.10;99.90;;;;;;4975415;28;20193;-74
2021/01/15 15:36:33;;;;;;;18.13;12.88;;;2.10;99.90;;;;;;5006252;28;20173;-74
2021/01/15 15:39:00;;;;;;;15.05;12.30;;;2.10;99.90;;;;;;5012298;28;20598;-73
2021/01/15 15:41:25;;;;;;;15.88;12.65;;;2.10;99.90;;;;;;4980332;28;20278;-74
2021/01/15 15:43:51;;;;;;;19.52;13.95;;;2.10;99.90;;;;;;4993122;28;20216;-74
2021/01/15 15:46:19;;;;;;;17.52;13.40;;;2.10;99.90;;;;;;4992998;28;20216;-75
2021/01/15 15:48:47;;;;;;;15.82;12.93;;;2.10;99.90;;;;;;4993727;28;20468;-76
2021/01/15 15:51:15;;;;;;;15.88;13.38;;;2.20;99.90;;;;;;4994924;28;20583;-77
2021/01/15 15:53:41;;;;;;;19.13;14.25;;;2.00;99.90;;;;;;5005485;28;20220;-77
2021/01/15 15:56:09;;;;;;;17.95;13.90;;;2.00;99.90;;;;;;4994741;28;20169;-78
2021/01/15 15:58:35;;;;;;;16.20;13.70;;;2.00;99.90;;;;;;4995267;28;20694;-77
2021/01/15 16:01:01;;;;;;;15.40;13.20;;;2.00;99.90;;;;;;4995401;28;20205;-77
2021/01/15 16:03:29;;;;;;;15.95;12.77;;;1.90;99.90;;;;;;5012191;28;20260;-77
2021/01/15 16:05:57;;;;;;;16.48;12.95;;;1.00;99.90;;;;;;4994347;28;20185;-77
2021/01/15 16:08:23;;;;;;;15.63;12.82;;;1.90;99.90;;;;;;4993849;28;20598;-77
2021/01/15 16:10:49;;;;;;;16.90;14.02;;;1.90;99.90;;;;;;5012688;28;20252;-77
2021/01/15 16:13:14;;;;;;;15.63;12.70;;;1.80;99.90;;;;;;4994749;28;20689;-77
2021/01/15 16:15:40;;;;;;;15.45;13.10;;;1.90;99.90;;;;;;4994356;28;20177;-77
2021/01/15 16:18:06;;;;;;;16.92;13.60;;;1.90;99.90;;;;;;5012383;28;20273;-77
2021/01/15 16:20:32;;;;;;;16.05;13.43;;;1.90;99.90;;;;;;4994871;28;20170;-76
2021/01/15 16:22:59;;;;;;;17.90;13.63;;;1.90;99.90;;;;;;5011373;28;20247;-76
2021/01/15 16:25:25;;;;;;;19.25;13.73;;;1.80;99.90;;;;;;5011990;28;20181;-76
2021/01/15 16:27:53;;;;;;;16.55;13.45;;;1.80;99.90;;;;;;5003304;28;20165;-76
2021/01/15 16:30:19;;;;;;;19.85;13.43;;;1.90;99.90;;;;;;5007223;28;20178;-76
2021/01/15 16:32:45;;;;;;;14.32;12.18;;;1.70;99.90;;;;;;4984948;28;20243;-76
2021/01/15 16:35:12;;;;;;;17.02;13.27;;;1.80;99.90;;;;;;5003570;28;20174;-76
2021/01/15 16:37:37;;;;;;;16.75;13.65;;;1.80;99.90;;;;;;5001400;28;20188;-75
2021/01/15 16:40:06;;;;;;;19.52;14.23;;;1.90;99.90;;;;;;4990986;28;20173;-77
2021/01/15 16:42:38;;;;;;;19.45;14.85;;;1.40;99.90;;;;;;5011583;28;20189;-77
2021/01/15 16:45:05;;;;;;;17.92;14.40;;;1.90;99.90;;;;;;5012492;28;20553;-78
2021/01/15 16:47:31;;;;;;;16.50;13.48;;;1.90;99.90;;;;;;5009225;28;20217;-77
2021/01/15 16:49:57;;;;;;;15.82;13.45;;;1.90;99.90;;;;;;5007930;28;20714;-78
2021/01/15 16:52:26;;;;;;;16.95;14.10;;;1.90;99.90;;;;;;5004208;28;20206;-77
2021/01/15 16:54:52;;;;;;;18.55;13.85;;;1.90;99.90;;;;;;5005976;28;20209;-77